sensor_id;sensor_type;location;lat;lon;timestamp;noise_LAeq;noise_LA_min;noise_LA_max;noise_LA01;noise_LA95
65079;Laerm;52655;52.218;5.964;2023-06-26T00:00:56;32.4;29.1;44.6;;
65079;Laerm;52655;52.218;5.964;2023-06-26T00:02:56;30.4;29.0;35.0;;
65079;Laerm;52655;52.218;5.964;2023-06-26T00:06:57;30.2;28.8;40.5;;
65079;Laerm;52655;52.218;5.964;2023-06-26T00:08:57;29.8;28.6;31.8;;
65079;Laerm;52655;52.218;5.964;2023-06-26T00:10:57;29.6;28.4;32.3;;
65079;Laerm;52655;52.218;5.964;2023-06-26T00:12:57;37.5;28.9;57.3;;
65079;Laerm;52655;52.218;5.964;2023-06-26T00:14:57;34.3;28.9;50.3;;
65079;Laerm;52655;52.218;5.964;2023-06-26T00:16:57;29.6;28.7;31.4;;
65079;Laerm;52655;52.218;5.964;2023-06-26T00:18:57;30.0;28.9;34.4;;
65079;Laerm;52655;52.218;5.964;2023-06-26T00:20:57;32.9;28.4;49.4;;
65079;Laerm;52655;52.218;5.964;2023-06-26T00:24:57;30.2;28.4;41.2;;
65079;Laerm;52655;52.218;5.964;2023-06-26T00:26:57;29.8;28.6;33.2;;
65079;Laerm;52655;52.218;5.964;2023-06-26T00:28:57;29.8;28.8;32.8;;
65079;Laerm;52655;52.218;5.964;2023-06-26T00:30:57;29.8;28.8;34.1;;
65079;Laerm;52655;52.218;5.964;2023-06-26T00:32:57;31.6;28.6;38.4;;
65079;Laerm;52655;52.218;5.964;2023-06-26T00:34:57;33.0;28.8;47.0;;
65079;Laerm;52655;52.218;5.964;2023-06-26T00:36:57;29.6;28.2;32.8;;
65079;Laerm;52655;52.218;5.964;2023-06-26T00:38:58;29.8;28.5;31.4;;
65079;Laerm;52655;52.218;5.964;2023-06-26T00:40:58;29.6;28.8;32.1;;
65079;Laerm;52655;52.218;5.964;2023-06-26T00:42:58;29.8;28.5;34.5;;
65079;Laerm;52655;52.218;5.964;2023-06-26T00:44:58;30.1;28.9;35.4;;
65079;Laerm;52655;52.218;5.964;2023-06-26T00:46:58;34.5;28.5;52.0;;
65079;Laerm;52655;52.218;5.964;2023-06-26T00:48:58;30.2;28.6;35.6;;
65079;Laerm;52655;52.218;5.964;2023-06-26T00:52:58;29.7;28.4;33.4;;
65079;Laerm;52655;52.218;5.964;2023-06-26T00:54:58;29.9;28.1;37.1;;
65079;Laerm;52655;52.218;5.964;2023-06-26T00:56:58;30.2;28.6;37.4;;
65079;Laerm;52655;52.218;5.964;2023-06-26T00:58:58;33.9;28.5;51.4;;
65079;Laerm;52655;52.218;5.964;2023-06-26T01:00:58;29.7;28.3;33.1;;
65079;Laerm;52655;52.218;5.964;2023-06-26T01:02:58;29.5;28.1;35.9;;
65079;Laerm;52655;52.218;5.964;2023-06-26T01:04:59;34.9;29.2;50.3;;
65079;Laerm;52655;52.218;5.964;2023-06-26T01:06:58;29.6;28.5;32.3;;
65079;Laerm;52655;52.218;5.964;2023-06-26T01:08:58;31.8;28.8;43.8;;
65079;Laerm;52655;52.218;5.964;2023-06-26T01:10:58;29.8;28.7;34.6;;
65079;Laerm;52655;52.218;5.964;2023-06-26T01:12:58;30.4;29.1;31.8;;
65079;Laerm;52655;52.218;5.964;2023-06-26T01:14:59;30.2;28.9;31.6;;
65079;Laerm;52655;52.218;5.964;2023-06-26T01:16:59;30.1;28.8;35.8;;
65079;Laerm;52655;52.218;5.964;2023-06-26T01:18:59;29.9;28.6;32.4;;
65079;Laerm;52655;52.218;5.964;2023-06-26T01:20:59;30.2;28.8;34.6;;
65079;Laerm;52655;52.218;5.964;2023-06-26T01:23:29;30.2;28.6;33.5;;
65079;Laerm;52655;52.218;5.964;2023-06-26T01:25:13;29.8;28.6;31.9;;
65079;Laerm;52655;52.218;5.964;2023-06-26T01:27:00;29.6;28.4;31.4;;
65079;Laerm;52655;52.218;5.964;2023-06-26T01:28:59;29.7;28.6;31.4;;
65079;Laerm;52655;52.218;5.964;2023-06-26T01:30:59;29.6;28.5;31.6;;
65079;Laerm;52655;52.218;5.964;2023-06-26T01:32:59;29.8;28.6;33.5;;
65079;Laerm;52655;52.218;5.964;2023-06-26T01:35:01;29.6;28.6;36.0;;
65079;Laerm;52655;52.218;5.964;2023-06-26T01:36:59;29.8;28.6;36.2;;
65079;Laerm;52655;52.218;5.964;2023-06-26T01:38:59;30.5;29.1;40.8;;
65079;Laerm;52655;52.218;5.964;2023-06-26T01:40:59;33.4;28.8;45.9;;
65079;Laerm;52655;52.218;5.964;2023-06-26T01:42:59;29.9;28.9;33.7;;
65079;Laerm;52655;52.218;5.964;2023-06-26T01:45:04;30.9;28.9;36.4;;
65079;Laerm;52655;52.218;5.964;2023-06-26T01:47:00;29.9;28.7;36.6;;
65079;Laerm;52655;52.218;5.964;2023-06-26T01:49:15;30.5;29.0;33.2;;
65079;Laerm;52655;52.218;5.964;2023-06-26T01:50:59;31.4;29.1;35.3;;
65079;Laerm;52655;52.218;5.964;2023-06-26T01:53:14;30.2;28.6;34.4;;
65079;Laerm;52655;52.218;5.964;2023-06-26T01:55:05;33.0;29.0;47.4;;
65079;Laerm;52655;52.218;5.964;2023-06-26T01:57:00;32.3;28.6;44.1;;
65079;Laerm;52655;52.218;5.964;2023-06-26T01:59:00;36.6;29.3;52.6;;
65079;Laerm;52655;52.218;5.964;2023-06-26T02:01:00;37.5;29.0;49.0;;
65079;Laerm;52655;52.218;5.964;2023-06-26T02:03:00;35.7;29.6;45.8;;
65079;Laerm;52655;52.218;5.964;2023-06-26T02:05:00;37.0;29.6;51.0;;
65079;Laerm;52655;52.218;5.964;2023-06-26T02:07:00;37.9;30.3;54.0;;
65079;Laerm;52655;52.218;5.964;2023-06-26T02:09:00;40.9;30.0;55.5;;
65079;Laerm;52655;52.218;5.964;2023-06-26T02:11:00;40.0;30.8;54.1;;
65079;Laerm;52655;52.218;5.964;2023-06-26T02:15:00;52.0;31.2;68.0;;
65079;Laerm;52655;52.218;5.964;2023-06-26T02:17:00;52.3;31.5;67.0;;
65079;Laerm;52655;52.218;5.964;2023-06-26T02:19:00;51.0;31.8;66.0;;
65079;Laerm;52655;52.218;5.964;2023-06-26T02:21:03;53.9;30.9;68.0;;
65079;Laerm;52655;52.218;5.964;2023-06-26T02:23:00;54.1;32.7;69.0;;
65079;Laerm;52655;52.218;5.964;2023-06-26T02:25:00;51.2;31.3;67.0;;
65079;Laerm;52655;52.218;5.964;2023-06-26T02:27:01;50.4;31.3;67.0;;
65079;Laerm;52655;52.218;5.964;2023-06-26T02:29:01;46.6;31.1;65.0;;
65079;Laerm;52655;52.218;5.964;2023-06-26T02:31:00;42.2;31.1;56.6;;
65079;Laerm;52655;52.218;5.964;2023-06-26T02:33:01;42.9;31.1;57.0;;
65079;Laerm;52655;52.218;5.964;2023-06-26T02:35:01;41.6;31.3;54.8;;
65079;Laerm;52655;52.218;5.964;2023-06-26T02:37:01;38.8;31.2;50.0;;
65079;Laerm;52655;52.218;5.964;2023-06-26T02:39:01;36.7;31.0;51.0;;
65079;Laerm;52655;52.218;5.964;2023-06-26T02:41:01;36.9;31.0;52.0;;
65079;Laerm;52655;52.218;5.964;2023-06-26T02:43:01;36.6;31.0;44.0;;
65079;Laerm;52655;52.218;5.964;2023-06-26T02:45:01;41.9;31.4;64.0;;
65079;Laerm;52655;52.218;5.964;2023-06-26T02:47:01;35.2;30.9;48.1;;
65079;Laerm;52655;52.218;5.964;2023-06-26T02:49:01;43.9;31.2;58.0;;
65079;Laerm;52655;52.218;5.964;2023-06-26T02:51:01;41.6;30.5;59.0;;
65079;Laerm;52655;52.218;5.964;2023-06-26T02:53:01;35.5;31.5;42.1;;
65079;Laerm;52655;52.218;5.964;2023-06-26T02:55:01;36.2;32.0;43.0;;
65079;Laerm;52655;52.218;5.964;2023-06-26T02:57:01;36.3;32.1;42.4;;
65079;Laerm;52655;52.218;5.964;2023-06-26T02:59:01;39.6;32.0;52.7;;
65079;Laerm;52655;52.218;5.964;2023-06-26T03:01:01;36.7;31.9;52.6;;
65079;Laerm;52655;52.218;5.964;2023-06-26T03:03:01;37.9;33.5;45.3;;
65079;Laerm;52655;52.218;5.964;2023-06-26T03:05:02;37.9;32.9;49.4;;
65079;Laerm;52655;52.218;5.964;2023-06-26T03:07:02;37.6;32.1;49.2;;
65079;Laerm;52655;52.218;5.964;2023-06-26T03:09:02;37.6;32.5;53.9;;
65079;Laerm;52655;52.218;5.964;2023-06-26T03:11:02;36.9;32.5;45.2;;
65079;Laerm;52655;52.218;5.964;2023-06-26T03:13:02;37.6;32.5;52.8;;
65079;Laerm;52655;52.218;5.964;2023-06-26T03:15:02;37.3;32.8;48.4;;
65079;Laerm;52655;52.218;5.964;2023-06-26T03:17:02;36.8;31.4;48.9;;
65079;Laerm;52655;52.218;5.964;2023-06-26T03:19:02;40.8;31.9;54.5;;
65079;Laerm;52655;52.218;5.964;2023-06-26T03:21:02;36.7;32.6;50.9;;
65079;Laerm;52655;52.218;5.964;2023-06-26T03:23:02;37.5;32.4;50.0;;
65079;Laerm;52655;52.218;5.964;2023-06-26T03:25:02;40.0;32.6;53.5;;
65079;Laerm;52655;52.218;5.964;2023-06-26T03:27:02;37.4;31.8;52.6;;
65079;Laerm;52655;52.218;5.964;2023-06-26T03:29:02;36.9;31.7;43.4;;
65079;Laerm;52655;52.218;5.964;2023-06-26T03:31:02;39.7;33.4;53.7;;
65079;Laerm;52655;52.218;5.964;2023-06-26T03:33:02;41.9;32.9;52.7;;
65079;Laerm;52655;52.218;5.964;2023-06-26T03:35:02;38.1;33.9;48.3;;
65079;Laerm;52655;52.218;5.964;2023-06-26T03:37:03;37.8;33.2;47.5;;
65079;Laerm;52655;52.218;5.964;2023-06-26T03:39:02;40.1;33.2;57.9;;
65079;Laerm;52655;52.218;5.964;2023-06-26T03:41:03;41.0;32.9;58.1;;
65079;Laerm;52655;52.218;5.964;2023-06-26T03:43:03;38.0;32.6;48.8;;
65079;Laerm;52655;52.218;5.964;2023-06-26T03:45:03;41.8;33.3;56.5;;
65079;Laerm;52655;52.218;5.964;2023-06-26T03:47:03;40.2;32.5;52.9;;
65079;Laerm;52655;52.218;5.964;2023-06-26T03:49:03;39.0;32.3;50.0;;
65079;Laerm;52655;52.218;5.964;2023-06-26T03:51:03;40.0;31.7;55.2;;
65079;Laerm;52655;52.218;5.964;2023-06-26T03:53:03;39.7;32.1;57.4;;
65079;Laerm;52655;52.218;5.964;2023-06-26T03:55:03;40.7;32.0;51.8;;
65079;Laerm;52655;52.218;5.964;2023-06-26T03:57:03;37.2;32.1;50.5;;
65079;Laerm;52655;52.218;5.964;2023-06-26T03:59:03;40.4;33.3;55.1;;
65079;Laerm;52655;52.218;5.964;2023-06-26T04:01:03;39.7;31.5;55.0;;
65079;Laerm;52655;52.218;5.964;2023-06-26T04:03:03;41.4;32.4;57.5;;
65079;Laerm;52655;52.218;5.964;2023-06-26T04:05:03;41.9;32.3;58.0;;
65079;Laerm;52655;52.218;5.964;2023-06-26T04:09:03;41.2;34.0;57.4;;
65079;Laerm;52655;52.218;5.964;2023-06-26T04:11:03;37.9;33.3;53.9;;
65079;Laerm;52655;52.218;5.964;2023-06-26T04:13:04;40.4;32.8;52.9;;
65079;Laerm;52655;52.218;5.964;2023-06-26T04:15:04;38.9;32.2;51.2;;
65079;Laerm;52655;52.218;5.964;2023-06-26T04:17:04;40.6;32.9;54.6;;
65079;Laerm;52655;52.218;5.964;2023-06-26T04:19:04;40.0;33.4;52.7;;
65079;Laerm;52655;52.218;5.964;2023-06-26T04:21:04;40.9;33.0;53.0;;
65079;Laerm;52655;52.218;5.964;2023-06-26T04:23:04;38.4;32.5;52.7;;
65079;Laerm;52655;52.218;5.964;2023-06-26T04:25:05;39.3;33.1;51.8;;
65079;Laerm;52655;52.218;5.964;2023-06-26T04:27:04;39.6;33.1;51.2;;
65079;Laerm;52655;52.218;5.964;2023-06-26T04:29:04;38.6;31.9;50.4;;
65079;Laerm;52655;52.218;5.964;2023-06-26T04:31:04;41.8;33.5;51.8;;
65079;Laerm;52655;52.218;5.964;2023-06-26T04:33:04;41.4;33.5;56.5;;
65079;Laerm;52655;52.218;5.964;2023-06-26T04:35:04;39.6;33.2;53.0;;
65079;Laerm;52655;52.218;5.964;2023-06-26T04:37:04;41.1;33.6;54.5;;
65079;Laerm;52655;52.218;5.964;2023-06-26T04:39:04;40.9;34.9;51.7;;
65079;Laerm;52655;52.218;5.964;2023-06-26T04:41:04;40.7;33.9;53.2;;
65079;Laerm;52655;52.218;5.964;2023-06-26T04:43:04;41.8;34.5;53.7;;
65079;Laerm;52655;52.218;5.964;2023-06-26T04:45:05;41.2;34.9;55.8;;
65079;Laerm;52655;52.218;5.964;2023-06-26T04:47:05;40.9;34.9;51.9;;
65079;Laerm;52655;52.218;5.964;2023-06-26T04:49:04;46.2;36.4;59.5;;
65079;Laerm;52655;52.218;5.964;2023-06-26T04:51:05;45.9;37.8;56.9;;
65079;Laerm;52655;52.218;5.964;2023-06-26T04:53:05;47.1;41.7;62.2;;
65079;Laerm;52655;52.218;5.964;2023-06-26T04:55:05;48.4;37.9;57.8;;
65079;Laerm;52655;52.218;5.964;2023-06-26T04:57:05;42.3;34.6;54.1;;
65079;Laerm;52655;52.218;5.964;2023-06-26T04:59:05;45.5;36.4;59.1;;
65079;Laerm;52655;52.218;5.964;2023-06-26T05:01:05;40.6;34.9;54.9;;
65079;Laerm;52655;52.218;5.964;2023-06-26T05:03:05;44.7;34.7;61.0;;
65079;Laerm;52655;52.218;5.964;2023-06-26T05:05:05;42.3;34.8;53.5;;
65079;Laerm;52655;52.218;5.964;2023-06-26T05:07:05;44.5;34.7;59.1;;
65079;Laerm;52655;52.218;5.964;2023-06-26T05:09:05;46.6;35.3;72.0;;
65079;Laerm;52655;52.218;5.964;2023-06-26T05:11:05;43.1;35.1;56.3;;
65079;Laerm;52655;52.218;5.964;2023-06-26T05:13:05;42.8;35.9;54.3;;
65079;Laerm;52655;52.218;5.964;2023-06-26T05:15:06;42.2;36.2;53.8;;
65079;Laerm;52655;52.218;5.964;2023-06-26T05:17:05;42.7;35.6;54.8;;
65079;Laerm;52655;52.218;5.964;2023-06-26T05:19:05;43.3;36.0;60.0;;
65079;Laerm;52655;52.218;5.964;2023-06-26T05:21:06;46.7;36.4;60.4;;
65079;Laerm;52655;52.218;5.964;2023-06-26T05:23:06;42.5;36.2;53.2;;
65079;Laerm;52655;52.218;5.964;2023-06-26T05:25:06;43.4;37.6;55.0;;
65079;Laerm;52655;52.218;5.964;2023-06-26T05:27:06;43.4;38.1;54.9;;
65079;Laerm;52655;52.218;5.964;2023-06-26T05:29:06;47.4;38.8;63.0;;
65079;Laerm;52655;52.218;5.964;2023-06-26T05:31:06;45.6;37.0;60.7;;
65079;Laerm;52655;52.218;5.964;2023-06-26T05:33:06;42.4;36.7;52.0;;
65079;Laerm;52655;52.218;5.964;2023-06-26T05:35:06;43.8;37.4;53.4;;
65079;Laerm;52655;52.218;5.964;2023-06-26T05:37:06;42.7;36.4;54.1;;
65079;Laerm;52655;52.218;5.964;2023-06-26T05:39:06;43.1;37.0;52.3;;
65079;Laerm;52655;52.218;5.964;2023-06-26T05:41:06;43.2;37.5;53.3;;
65079;Laerm;52655;52.218;5.964;2023-06-26T05:43:06;46.4;38.1;59.7;;
65079;Laerm;52655;52.218;5.964;2023-06-26T05:45:06;42.4;37.4;51.1;;
65079;Laerm;52655;52.218;5.964;2023-06-26T05:47:06;45.9;37.3;59.1;;
65079;Laerm;52655;52.218;5.964;2023-06-26T05:49:06;44.9;37.4;58.2;;
65079;Laerm;52655;52.218;5.964;2023-06-26T05:51:06;43.9;37.1;58.0;;
65079;Laerm;52655;52.218;5.964;2023-06-26T05:53:06;42.4;37.2;52.9;;
65079;Laerm;52655;52.218;5.964;2023-06-26T05:55:06;46.5;39.0;70.6;;
65079;Laerm;52655;52.218;5.964;2023-06-26T05:57:06;59.8;40.4;90.1;;
65079;Laerm;52655;52.218;5.964;2023-06-26T05:59:06;43.6;39.7;52.5;;
65079;Laerm;52655;52.218;5.964;2023-06-26T06:01:07;48.6;40.9;70.0;;
65079;Laerm;52655;52.218;5.964;2023-06-26T06:03:09;46.4;41.9;60.2;;
65079;Laerm;52655;52.218;5.964;2023-06-26T06:05:07;47.2;41.7;68.1;;
65079;Laerm;52655;52.218;5.964;2023-06-26T06:07:07;48.4;40.3;64.0;;
65079;Laerm;52655;52.218;5.964;2023-06-26T06:09:07;46.2;39.8;69.6;;
65079;Laerm;52655;52.218;5.964;2023-06-26T06:11:07;45.0;39.3;64.4;;
65079;Laerm;52655;52.218;5.964;2023-06-26T06:13:07;44.7;39.5;53.2;;
65079;Laerm;52655;52.218;5.964;2023-06-26T06:15:07;46.7;40.5;59.3;;
65079;Laerm;52655;52.218;5.964;2023-06-26T06:17:07;49.4;41.3;57.1;;
65079;Laerm;52655;52.218;5.964;2023-06-26T06:19:07;48.7;42.9;55.7;;
65079;Laerm;52655;52.218;5.964;2023-06-26T06:21:07;46.5;40.7;57.0;;
65079;Laerm;52655;52.218;5.964;2023-06-26T06:23:07;46.4;41.2;59.1;;
65079;Laerm;52655;52.218;5.964;2023-06-26T06:25:08;47.4;41.5;68.9;;
65079;Laerm;52655;52.218;5.964;2023-06-26T06:27:07;48.2;43.0;57.6;;
65079;Laerm;52655;52.218;5.964;2023-06-26T06:29:07;45.8;40.7;54.7;;
65079;Laerm;52655;52.218;5.964;2023-06-26T06:31:07;44.5;39.3;54.8;;
65079;Laerm;52655;52.218;5.964;2023-06-26T06:33:07;46.2;39.2;59.1;;
65079;Laerm;52655;52.218;5.964;2023-06-26T06:35:07;45.9;40.4;64.0;;
65079;Laerm;52655;52.218;5.964;2023-06-26T06:39:08;46.2;39.8;61.0;;
65079;Laerm;52655;52.218;5.964;2023-06-26T06:41:08;46.8;40.6;59.0;;
65079;Laerm;52655;52.218;5.964;2023-06-26T06:43:08;48.4;42.9;66.7;;
65079;Laerm;52655;52.218;5.964;2023-06-26T06:45:09;46.8;40.9;54.9;;
65079;Laerm;52655;52.218;5.964;2023-06-26T06:47:08;51.4;40.9;69.0;;
65079;Laerm;52655;52.218;5.964;2023-06-26T06:49:08;49.7;42.0;64.2;;
65079;Laerm;52655;52.218;5.964;2023-06-26T06:51:08;48.2;41.5;56.3;;
65079;Laerm;52655;52.218;5.964;2023-06-26T06:53:08;48.6;41.4;57.1;;
65079;Laerm;52655;52.218;5.964;2023-06-26T06:55:08;48.3;40.4;61.8;;
65079;Laerm;52655;52.218;5.964;2023-06-26T06:57:08;53.5;42.3;70.4;;
65079;Laerm;52655;52.218;5.964;2023-06-26T06:59:08;48.3;41.6;58.8;;
65079;Laerm;52655;52.218;5.964;2023-06-26T07:01:09;48.7;42.7;64.0;;
65079;Laerm;52655;52.218;5.964;2023-06-26T07:03:08;47.7;41.8;65.0;;
65079;Laerm;52655;52.218;5.964;2023-06-26T07:05:08;50.5;41.5;64.5;;
65079;Laerm;52655;52.218;5.964;2023-06-26T07:07:08;49.3;41.4;60.5;;
65079;Laerm;52655;52.218;5.964;2023-06-26T07:09:08;46.2;40.4;57.9;;
65079;Laerm;52655;52.218;5.964;2023-06-26T07:11:08;48.9;41.3;62.0;;
65079;Laerm;52655;52.218;5.964;2023-06-26T07:13:09;49.3;42.6;59.3;;
65079;Laerm;52655;52.218;5.964;2023-06-26T07:15:09;48.3;41.7;59.0;;
65079;Laerm;52655;52.218;5.964;2023-06-26T07:17:09;49.2;41.8;62.7;;
65079;Laerm;52655;52.218;5.964;2023-06-26T07:19:09;48.6;41.3;60.4;;
65079;Laerm;52655;52.218;5.964;2023-06-26T07:21:09;48.6;43.0;59.3;;
65079;Laerm;52655;52.218;5.964;2023-06-26T07:23:09;45.6;39.3;57.1;;
65079;Laerm;52655;52.218;5.964;2023-06-26T07:25:09;46.4;39.8;57.1;;
65079;Laerm;52655;52.218;5.964;2023-06-26T07:29:09;47.5;38.9;61.3;;
65079;Laerm;52655;52.218;5.964;2023-06-26T07:31:09;46.5;37.0;57.4;;
65079;Laerm;52655;52.218;5.964;2023-06-26T07:33:09;51.0;38.4;66.5;;
65079;Laerm;52655;52.218;5.964;2023-06-26T07:35:09;49.4;41.2;71.2;;
65079;Laerm;52655;52.218;5.964;2023-06-26T07:37:09;46.3;40.9;55.4;;
65079;Laerm;52655;52.218;5.964;2023-06-26T07:39:09;47.1;41.5;54.0;;
65079;Laerm;52655;52.218;5.964;2023-06-26T07:41:09;46.1;41.9;54.1;;
65079;Laerm;52655;52.218;5.964;2023-06-26T07:43:09;47.7;41.5;55.3;;
65079;Laerm;52655;52.218;5.964;2023-06-26T07:47:10;45.7;39.7;54.5;;
65079;Laerm;52655;52.218;5.964;2023-06-26T07:49:10;45.5;40.4;52.8;;
65079;Laerm;52655;52.218;5.964;2023-06-26T07:51:10;45.4;40.3;52.8;;
65079;Laerm;52655;52.218;5.964;2023-06-26T07:53:10;46.7;41.2;54.2;;
65079;Laerm;52655;52.218;5.964;2023-06-26T07:57:10;46.0;38.3;61.4;;
65079;Laerm;52655;52.218;5.964;2023-06-26T07:59:10;45.8;38.4;55.8;;
65079;Laerm;52655;52.218;5.964;2023-06-26T08:01:17;45.2;37.9;53.0;;
65079;Laerm;52655;52.218;5.964;2023-06-26T08:03:17;45.4;39.3;56.2;;
65079;Laerm;52655;52.218;5.964;2023-06-26T08:05:10;46.0;40.5;54.4;;
65079;Laerm;52655;52.218;5.964;2023-06-26T08:07:10;48.3;41.6;53.9;;
65079;Laerm;52655;52.218;5.964;2023-06-26T08:09:10;47.4;41.8;57.3;;
65079;Laerm;52655;52.218;5.964;2023-06-26T08:11:10;45.6;39.8;52.3;;
65079;Laerm;52655;52.218;5.964;2023-06-26T08:13:10;44.9;39.8;56.6;;
65079;Laerm;52655;52.218;5.964;2023-06-26T08:15:10;51.6;38.7;64.3;;
65079;Laerm;52655;52.218;5.964;2023-06-26T08:17:10;42.8;37.6;57.4;;
65079;Laerm;52655;52.218;5.964;2023-06-26T08:19:10;44.2;37.6;53.6;;
65079;Laerm;52655;52.218;5.964;2023-06-26T08:23:10;44.4;39.3;53.4;;
65079;Laerm;52655;52.218;5.964;2023-06-26T08:25:11;43.7;39.5;53.4;;
65079;Laerm;52655;52.218;5.964;2023-06-26T08:27:11;51.4;40.4;63.8;;
65079;Laerm;52655;52.218;5.964;2023-06-26T08:29:11;45.1;39.5;54.1;;
65079;Laerm;52655;52.218;5.964;2023-06-26T08:31:11;46.8;40.3;54.4;;
65079;Laerm;52655;52.218;5.964;2023-06-26T08:33:11;45.1;40.3;51.8;;
65079;Laerm;52655;52.218;5.964;2023-06-26T08:35:11;47.8;42.5;63.4;;
65079;Laerm;52655;52.218;5.964;2023-06-26T08:37:11;47.9;42.1;61.3;;
65079;Laerm;52655;52.218;5.964;2023-06-26T08:39:11;45.0;39.3;52.6;;
65079;Laerm;52655;52.218;5.964;2023-06-26T08:41:11;45.2;40.7;52.3;;
65079;Laerm;52655;52.218;5.964;2023-06-26T08:43:11;46.8;41.3;58.6;;
65079;Laerm;52655;52.218;5.964;2023-06-26T08:45:11;46.4;41.4;53.8;;
65079;Laerm;52655;52.218;5.964;2023-06-26T08:47:11;44.0;39.3;54.0;;
65079;Laerm;52655;52.218;5.964;2023-06-26T08:49:13;45.8;39.3;55.2;;
65079;Laerm;52655;52.218;5.964;2023-06-26T08:51:11;44.4;39.6;54.4;;
65079;Laerm;52655;52.218;5.964;2023-06-26T08:53:18;43.9;38.0;51.9;;
65079;Laerm;52655;52.218;5.964;2023-06-26T08:55:11;44.4;39.3;53.0;;
65079;Laerm;52655;52.218;5.964;2023-06-26T08:57:11;43.5;38.3;54.9;;
65079;Laerm;52655;52.218;5.964;2023-06-26T08:59:11;44.9;38.2;54.8;;
65079;Laerm;52655;52.218;5.964;2023-06-26T09:01:12;46.7;40.7;59.0;;
65079;Laerm;52655;52.218;5.964;2023-06-26T09:03:12;45.4;39.3;56.3;;
65079;Laerm;52655;52.218;5.964;2023-06-26T09:05:12;44.2;38.9;53.2;;
65079;Laerm;52655;52.218;5.964;2023-06-26T09:07:12;44.3;37.9;52.5;;
65079;Laerm;52655;52.218;5.964;2023-06-26T09:09:12;44.3;38.7;52.5;;
65079;Laerm;52655;52.218;5.964;2023-06-26T09:11:12;44.2;37.9;53.0;;
65079;Laerm;52655;52.218;5.964;2023-06-26T09:13:12;44.7;37.8;52.1;;
65079;Laerm;52655;52.218;5.964;2023-06-26T09:15:13;44.9;38.8;55.5;;
65079;Laerm;52655;52.218;5.964;2023-06-26T09:17:12;44.8;40.8;54.9;;
65079;Laerm;52655;52.218;5.964;2023-06-26T09:19:12;45.2;40.5;53.3;;
65079;Laerm;52655;52.218;5.964;2023-06-26T09:21:12;46.6;41.6;56.4;;
65079;Laerm;52655;52.218;5.964;2023-06-26T09:23:12;49.5;44.1;59.9;;
65079;Laerm;52655;52.218;5.964;2023-06-26T09:25:12;47.8;41.2;61.8;;
65079;Laerm;52655;52.218;5.964;2023-06-26T09:27:12;46.5;40.4;56.3;;
65079;Laerm;52655;52.218;5.964;2023-06-26T09:29:13;47.9;39.3;61.1;;
65079;Laerm;52655;52.218;5.964;2023-06-26T09:31:12;44.5;40.1;54.6;;
65079;Laerm;52655;52.218;5.964;2023-06-26T09:33:13;45.2;39.0;53.4;;
65079;Laerm;52655;52.218;5.964;2023-06-26T09:37:12;49.4;40.5;58.6;;
65079;Laerm;52655;52.218;5.964;2023-06-26T09:39:13;47.4;41.2;53.4;;
65079;Laerm;52655;52.218;5.964;2023-06-26T09:41:15;47.2;40.4;61.5;;
65079;Laerm;52655;52.218;5.964;2023-06-26T09:43:13;47.0;41.8;54.8;;
65079;Laerm;52655;52.218;5.964;2023-06-26T09:45:18;45.3;40.9;58.5;;
65079;Laerm;52655;52.218;5.964;2023-06-26T09:47:13;48.1;40.1;55.5;;
65079;Laerm;52655;52.218;5.964;2023-06-26T09:51:13;47.8;43.4;55.7;;
65079;Laerm;52655;52.218;5.964;2023-06-26T09:53:13;45.3;40.9;52.7;;
65079;Laerm;52655;52.218;5.964;2023-06-26T09:55:14;45.9;39.2;58.7;;
65079;Laerm;52655;52.218;5.964;2023-06-26T09:57:16;46.6;40.1;59.0;;
65079;Laerm;52655;52.218;5.964;2023-06-26T09:59:13;48.0;41.3;60.9;;
65079;Laerm;52655;52.218;5.964;2023-06-26T10:01:13;46.4;40.5;56.8;;
65079;Laerm;52655;52.218;5.964;2023-06-26T10:03:13;45.9;40.3;55.4;;
65079;Laerm;52655;52.218;5.964;2023-06-26T10:05:14;44.5;37.9;54.9;;
65079;Laerm;52655;52.218;5.964;2023-06-26T10:07:13;43.5;38.8;56.0;;
65079;Laerm;52655;52.218;5.964;2023-06-26T10:09:13;46.5;40.9;57.6;;
65079;Laerm;52655;52.218;5.964;2023-06-26T10:11:15;45.3;39.6;57.1;;
65079;Laerm;52655;52.218;5.964;2023-06-26T10:13:19;44.4;38.2;54.1;;
65079;Laerm;52655;52.218;5.964;2023-06-26T10:15:14;44.9;39.9;52.8;;
65079;Laerm;52655;52.218;5.964;2023-06-26T10:17:15;46.5;39.5;58.2;;
65079;Laerm;52655;52.218;5.964;2023-06-26T10:19:14;46.4;39.2;60.4;;
65079;Laerm;52655;52.218;5.964;2023-06-26T10:21:14;47.7;40.2;56.8;;
65079;Laerm;52655;52.218;5.964;2023-06-26T10:23:14;46.3;41.5;56.6;;
65079;Laerm;52655;52.218;5.964;2023-06-26T10:25:16;47.2;40.7;63.2;;
65079;Laerm;52655;52.218;5.964;2023-06-26T10:27:17;44.5;38.8;54.1;;
65079;Laerm;52655;52.218;5.964;2023-06-26T10:29:14;46.1;39.5;56.3;;
65079;Laerm;52655;52.218;5.964;2023-06-26T10:31:14;46.7;39.2;63.8;;
65079;Laerm;52655;52.218;5.964;2023-06-26T10:33:14;45.3;38.9;54.7;;
65079;Laerm;52655;52.218;5.964;2023-06-26T10:35:14;45.5;40.3;53.6;;
65079;Laerm;52655;52.218;5.964;2023-06-26T10:37:14;45.2;39.2;51.7;;
65079;Laerm;52655;52.218;5.964;2023-06-26T10:39:14;45.6;39.8;58.7;;
65079;Laerm;52655;52.218;5.964;2023-06-26T10:41:14;48.7;40.3;60.9;;
65079;Laerm;52655;52.218;5.964;2023-06-26T10:43:15;46.9;40.1;58.7;;
65079;Laerm;52655;52.218;5.964;2023-06-26T10:45:15;46.9;39.2;61.3;;
65079;Laerm;52655;52.218;5.964;2023-06-26T10:47:28;43.7;37.3;56.2;;
65079;Laerm;52655;52.218;5.964;2023-06-26T10:49:14;44.0;38.3;55.1;;
65079;Laerm;52655;52.218;5.964;2023-06-26T10:51:15;44.7;38.3;53.1;;
65079;Laerm;52655;52.218;5.964;2023-06-26T10:53:15;50.7;42.6;58.1;;
65079;Laerm;52655;52.218;5.964;2023-06-26T10:55:15;50.5;42.4;60.7;;
65079;Laerm;52655;52.218;5.964;2023-06-26T10:57:20;48.9;44.2;56.3;;
65079;Laerm;52655;52.218;5.964;2023-06-26T10:59:15;46.1;40.6;57.2;;
65079;Laerm;52655;52.218;5.964;2023-06-26T11:05:23;46.8;40.8;67.7;;
65079;Laerm;52655;52.218;5.964;2023-06-26T11:07:17;47.1;41.5;54.4;;
65079;Laerm;52655;52.218;5.964;2023-06-26T11:09:17;47.4;39.9;59.3;;
65079;Laerm;52655;52.218;5.964;2023-06-26T11:13:15;44.4;38.4;52.5;;
65079;Laerm;52655;52.218;5.964;2023-06-26T11:15:16;45.2;39.2;56.6;;
65079;Laerm;52655;52.218;5.964;2023-06-26T11:17:15;46.5;39.8;54.4;;
65079;Laerm;52655;52.218;5.964;2023-06-26T11:19:16;53.4;42.9;64.4;;
65079;Laerm;52655;52.218;5.964;2023-06-26T11:21:15;49.1;42.0;61.0;;
65079;Laerm;52655;52.218;5.964;2023-06-26T11:23:16;48.2;41.8;57.9;;
65079;Laerm;52655;52.218;5.964;2023-06-26T11:25:16;46.5;39.5;54.9;;
65079;Laerm;52655;52.218;5.964;2023-06-26T11:27:16;46.1;39.8;59.3;;
65079;Laerm;52655;52.218;5.964;2023-06-26T11:29:16;45.6;39.3;54.9;;
65079;Laerm;52655;52.218;5.964;2023-06-26T11:31:23;44.2;40.0;53.0;;
65079;Laerm;52655;52.218;5.964;2023-06-26T11:33:16;44.0;38.7;53.6;;
65079;Laerm;52655;52.218;5.964;2023-06-26T11:35:22;46.7;41.5;54.0;;
65079;Laerm;52655;52.218;5.964;2023-06-26T11:37:16;49.3;43.3;63.3;;
65079;Laerm;52655;52.218;5.964;2023-06-26T11:41:17;48.3;42.8;56.7;;
65079;Laerm;52655;52.218;5.964;2023-06-26T11:43:16;47.1;42.3;51.2;;
65079;Laerm;52655;52.218;5.964;2023-06-26T11:47:16;51.9;42.6;67.0;;
65079;Laerm;52655;52.218;5.964;2023-06-26T11:49:16;58.9;46.8;69.7;;
65079;Laerm;52655;52.218;5.964;2023-06-26T11:51:16;49.8;44.6;56.0;;
65079;Laerm;52655;52.218;5.964;2023-06-26T11:53:16;48.5;43.5;54.1;;
65079;Laerm;52655;52.218;5.964;2023-06-26T11:55:16;48.9;44.5;56.2;;
65079;Laerm;52655;52.218;5.964;2023-06-26T11:57:16;47.1;41.1;53.9;;
65079;Laerm;52655;52.218;5.964;2023-06-26T11:59:16;49.9;43.9;59.6;;
65079;Laerm;52655;52.218;5.964;2023-06-26T12:01:17;46.1;41.6;53.6;;
65079;Laerm;52655;52.218;5.964;2023-06-26T12:03:17;49.6;42.3;67.4;;
65079;Laerm;52655;52.218;5.964;2023-06-26T12:05:17;51.4;42.6;62.2;;
65079;Laerm;52655;52.218;5.964;2023-06-26T12:07:17;47.7;42.8;52.8;;
65079;Laerm;52655;52.218;5.964;2023-06-26T12:09:18;48.2;41.7;64.7;;
65079;Laerm;52655;52.218;5.964;2023-06-26T12:11:17;46.5;39.8;58.5;;
65079;Laerm;52655;52.218;5.964;2023-06-26T12:13:17;47.6;41.3;64.2;;
65079;Laerm;52655;52.218;5.964;2023-06-26T12:15:17;49.5;42.0;58.6;;